Merritt Island, FL

10:21 AM EST on February 27, 2015 (GMT -0500)
Patrick Air Force Base | Change Station
CLOSE
Current Station
Airport
Location: Cocoa Beach,
Elevation: 10 ft
Nearby Weather Stations

Elev 10 ft 28.24 °N, 80.60 °W | Updated 5 minutes ago

Mostly Cloudy
Mostly Cloudy
59 °F
Feels Like 59 °F
N
20
Wind Variable Wind from NNW
Gusts 26 mph

Today
High -- | Low -- °F
--% Chance of Precip.
Yesterday
High -- | Low -- °F
Precip. -- in
6:49 AM 6:21 PM
Waxing Gibbous, 69% visible
Pressure 30.19 in
Visibility 10.0 miles
Clouds Overcast 2200 ft
Dew Point 55 °F
Humidity 88%
Rainfall 0.00 in
Snow Depth Not available.
UV 2 out of 12
Pollen 10.40 out of 12
Air Quality Not available.
Flu Activity Not available.
SPECI KCOF 271516Z AUTO 34017G23KT 10SM OVC022 15/13 A3019 RMK AO2 DZB07E16

More Conditions Fewer Conditions

Pressure 30.19 in
Visibility 10.0 miles
Clouds Overcast 2200 ft
Dew Point 55 °F
Humidity 88%
Rainfall 0.00 in
Snow Depth Not available.
UV 2 out of 12
Pollen 10.40 out of 12
Air Quality Not available.
Flu Activity Not available.
SPECI KCOF 271516Z AUTO 34017G23KT 10SM OVC022 15/13 A3019 RMK AO2 DZB07E16

More Conditions Fewer Conditions

Nowcast | as of 9:28 am EST on February 27, 2015

It will be cool and breezy today...with high temperatures only reaching the low to mid 60s across much of east central Florida and a few degrees warmer along the Treasure Coast. The highest rain chances are expected along the Treasure Coast...with rain chances and cloudiness gradually tapering off to the north and west.

×

10-Day Weather Forecast

Almanac

Astronomy

Feb. 27, 2015 Rise Set
Actual Time
Civil Twilight
Nautical Twilight
Astronomical Twilight
Moon
Length of Visible Light
Length of Day
Tomorrow will be .
, % of the Moon is Illuminated

Today's Extremes

State Highs State Lows

Community

WunderPhotos

Upload Photos

1,800,694 photos uploaded!

WunderBlogs® & News

Nearby

Air Quality

  Air Quality AQ Index Pollutant
Not available.

Snow Depth

Station Depth Elevation

Earthquake Activity

City Distance Mag. Time & Date
Minimum magnitude displayed is 2.5.

Coastal Water Temperatures

Place Temperature

Nearby Weather Stations